Terminal Aerodrome Forecast
Issued by NWS

Home | Current Version | Previous Version | Text Only | Print | Product List | Glossary Off
Versions: 1 2 3 4 5 6 7 8 9 10 11 12 13

024
FTUS43 KBIS 021720
TAFJMS
TAF
KJMS 021720Z 0218/0318 18011KT P6SM VCSH BKN080
     FM022300 19005KT P6SM SCT250
     FM030800 26005KT P6SM SCT250=

USA.gov is the U.S. government's official web portal to all federal, state and local government web resources and services.